createdAt,value
2022-11-05T06:36:24.802Z,10.10
2022-11-05T06:39:01.997Z,9.47
2022-11-05T06:42:03.872Z,10.90
2022-11-05T06:44:35.835Z,8.97
2022-11-05T06:47:12.601Z,9.23
2022-11-05T06:49:50.001Z,8.93
2022-11-05T06:52:31.573Z,9.40
2022-11-05T06:55:09.740Z,9.07
2022-11-05T06:57:46.572Z,9.87
2022-11-05T07:00:24.447Z,8.00
2022-11-05T07:03:09.266Z,9.67
2022-11-05T07:05:51.082Z,8.97
2022-11-05T07:08:33.073Z,12.90
2022-11-05T07:11:10.372Z,9.97
2022-11-05T07:13:47.060Z,9.47
2022-11-05T07:16:24.153Z,10.20
2022-11-05T07:19:00.784Z,9.03
2022-11-05T07:21:42.149Z,9.87
2022-11-05T07:24:22.447Z,11.50
2022-11-05T07:26:59.507Z,10.60
2022-11-05T07:29:36.237Z,10.87
2022-11-05T07:32:13.747Z,10.57
2022-11-05T07:34:51.877Z,11.60
2022-11-05T07:37:29.396Z,10.03
2022-11-05T07:40:10.845Z,11.00
2022-11-05T07:42:49.089Z,12.00
2022-11-05T07:45:27.435Z,11.93
2022-11-05T07:48:06.946Z,12.43
2022-11-05T07:50:44.176Z,16.80
2022-11-05T07:53:24.799Z,12.53
2022-11-05T07:56:04.239Z,13.53
2022-11-05T07:58:41.270Z,14.27
2022-11-05T08:01:18.331Z,15.30
2022-11-05T08:03:55.638Z,15.17
2022-11-05T08:06:32.321Z,16.37
2022-11-05T08:09:09.466Z,13.87
2022-11-05T08:11:51.192Z,16.97
2022-11-05T08:14:30.146Z,18.43
2022-11-05T08:17:06.829Z,17.03
2022-11-05T08:19:44.027Z,16.40
2022-11-05T08:22:20.756Z,16.50
2022-11-05T08:25:01.419Z,15.73
2022-11-05T08:27:43.969Z,15.55
2022-11-05T08:30:21.255Z,17.33
2022-11-05T08:33:01.783Z,16.37
2022-11-05T08:35:40.097Z,18.83
2022-11-05T08:38:19.156Z,16.83
2022-11-05T08:41:01.215Z,15.87
2022-11-05T08:43:40.553Z,16.53
2022-11-05T08:46:17.523Z,15.93
2022-11-05T08:48:54.193Z,20.77
2022-11-05T08:51:31.314Z,14.30
2022-11-05T08:54:08.774Z,15.37
2022-11-05T08:56:45.835Z,15.90
2022-11-05T08:59:25.193Z,16.63
2022-11-05T09:02:02.372Z,21.10
2022-11-05T09:04:39.172Z,18.73
2022-11-05T09:07:16.300Z,13.93
2022-11-05T09:09:52.944Z,15.17
2022-11-05T09:12:30.074Z,19.03
2022-11-05T09:15:10.916Z,16.00
2022-11-05T09:17:48.002Z,13.53
2022-11-05T09:20:24.866Z,16.47
2022-11-05T09:23:02.264Z,15.93
2022-11-05T09:25:39.132Z,15.33
2022-11-05T09:28:20.539Z,15.40
2022-11-05T09:31:00.969Z,16.43
2022-11-05T09:33:39.504Z,17.93
2022-11-05T09:36:16.446Z,14.80
2022-11-05T09:38:54.210Z,15.03
2022-11-05T09:41:35.999Z,17.83
2022-11-05T09:44:19.429Z,15.00
2022-11-05T09:47:05.410Z,14.38
2022-11-05T09:49:48.492Z,14.33
2022-11-05T09:52:28.350Z,12.30
2022-11-05T09:55:07.809Z,16.67
2022-11-05T09:57:52.428Z,13.10
2022-11-05T10:00:29.861Z,13.20
2022-11-05T10:03:16.349Z,12.70
2022-11-05T10:05:55.391Z,9.30
2022-11-05T10:08:36.009Z,9.40
2022-11-05T10:11:19.105Z,10.33
2022-11-05T10:14:01.894Z,6.97
2022-11-05T10:16:42.399Z,10.77
2022-11-05T10:19:26.537Z,8.57
2022-11-05T10:22:14.364Z,7.80
2022-11-05T10:24:54.068Z,8.30
2022-11-05T10:27:36.669Z,6.73
2022-11-05T10:30:17.768Z,6.97
2022-11-05T10:33:00.919Z,9.43
2022-11-05T10:35:55.365Z,5.90
2022-11-05T10:38:33.040Z,5.83
2022-11-05T10:41:30.797Z,4.53
2022-11-05T10:44:27.164Z,6.80
2022-11-05T10:47:35.706Z,5.93
2022-11-05T10:50:16.367Z,6.23
2022-11-05T10:53:03.325Z,5.83
2022-11-05T10:55:44.867Z,4.93
2022-11-05T10:58:29.958Z,6.10
2022-11-05T11:01:17.123Z,5.93
2022-11-05T11:03:56.276Z,5.60
2022-11-05T11:06:38.157Z,4.70
2022-11-05T11:09:30.027Z,5.57
2022-11-05T11:12:15.335Z,7.30
2022-11-05T11:15:04.848Z,3.60
2022-11-05T11:17:42.167Z,4.57
2022-11-05T11:20:27.859Z,4.47
2022-11-05T11:23:14.544Z,8.93
2022-11-05T11:26:01.334Z,4.07
2022-11-05T11:28:42.978Z,3.90
2022-11-05T11:31:25.153Z,3.33
2022-11-05T11:34:07.590Z,4.10
2022-11-05T11:36:50.046Z,10.50
2022-11-05T11:39:32.660Z,2.88
2022-11-05T11:42:20.463Z,3.70
2022-11-05T11:44:59.465Z,3.73
2022-11-05T11:47:37.010Z,4.67
2022-11-05T11:50:40.155Z,5.83
2022-11-05T11:53:36.878Z,4.10
2022-11-05T11:56:23.433Z,6.87
2022-11-05T11:59:13.468Z,5.70
2022-11-05T12:02:36.548Z,5.63
2022-11-05T12:05:38.745Z,4.23
2022-11-05T12:08:56.356Z,4.43
2022-11-05T12:11:44.988Z,3.57
2022-11-05T12:14:43.678Z,3.63
2022-11-05T12:17:42.746Z,4.27
2022-11-05T12:20:58.244Z,6.47
2022-11-05T12:24:16.551Z,5.87
2022-11-05T12:27:06.778Z,7.03
2022-11-05T12:30:00.879Z,6.17
2022-11-05T12:32:59.306Z,6.30
2022-11-05T12:35:53.441Z,7.13
2022-11-05T12:39:02.352Z,4.90
2022-11-05T12:41:46.997Z,4.83
2022-11-05T12:44:52.017Z,8.50
2022-11-05T12:47:57.405Z,6.30
2022-11-05T12:50:43.478Z,7.83
2022-11-05T12:53:43.318Z,7.03
2022-11-05T12:56:28.071Z,7.00
2022-11-05T12:59:09.974Z,7.13
2022-11-05T13:02:06.669Z,6.20
2022-11-05T13:04:48.675Z,6.50
2022-11-05T13:07:33.746Z,5.00
2022-11-05T13:10:23.375Z,9.43
2022-11-05T13:13:24.393Z,10.10
2022-11-05T13:16:07.476Z,7.77
2022-11-05T13:18:53.797Z,7.97
2022-11-05T13:21:33.298Z,9.27
2022-11-05T13:24:19.860Z,7.70
2022-11-05T13:27:03.808Z,7.77
2022-11-05T13:29:51.998Z,8.93
2022-11-05T13:32:35.260Z,8.30
2022-11-05T13:35:28.706Z,10.57
2022-11-05T13:38:28.780Z,8.88
2022-11-05T13:41:27.858Z,7.40
2022-11-05T13:44:27.648Z,9.87
2022-11-05T13:47:37.806Z,10.13
2022-11-05T13:51:05.089Z,7.70
2022-11-05T13:54:27.254Z,10.63
2022-11-05T13:57:25.221Z,8.37
2022-11-05T14:00:17.339Z,12.60
2022-11-05T14:02:57.950Z,9.07
2022-11-05T14:05:43.514Z,8.23
2022-11-05T14:08:27.262Z,13.93
2022-11-05T14:11:11.822Z,7.07
2022-11-05T14:13:54.961Z,7.63
2022-11-05T14:16:51.051Z,8.47
2022-11-05T14:19:39.512Z,9.03
2022-11-05T14:22:41.915Z,10.77
2022-11-05T14:26:00.613Z,7.43
2022-11-05T14:29:26.925Z,7.03
2022-11-05T14:32:29.018Z,7.70
2022-11-05T14:35:30.678Z,10.80
2022-11-05T14:38:26.780Z,9.97
2022-11-05T14:41:07.137Z,7.93
2022-11-05T14:43:53.012Z,8.90
2022-11-05T14:46:46.177Z,7.83
2022-11-05T14:49:29.697Z,8.25
2022-11-05T14:54:54.457Z,12.43
2022-11-05T14:58:07.867Z,8.10
2022-11-05T15:00:51.652Z,7.23
2022-11-05T15:04:05.958Z,7.50
2022-11-05T15:07:40.543Z,10.30
2022-11-05T15:10:22.668Z,13.13
2022-11-05T15:13:09.586Z,6.97
2022-11-05T15:15:52.344Z,11.97
2022-11-05T15:18:36.619Z,15.60
2022-11-05T15:21:19.800Z,9.93
2022-11-05T15:24:05.796Z,8.23
2022-11-05T15:26:55.719Z,10.60
2022-11-05T15:29:35.011Z,12.17
2022-11-05T15:32:21.013Z,17.17
2022-11-05T15:34:59.854Z,8.40
2022-11-05T15:37:38.075Z,9.60
2022-11-05T15:40:27.792Z,9.30
2022-11-05T15:43:23.146Z,11.63
2022-11-05T15:46:10.860Z,11.87
2022-11-05T15:48:51.236Z,13.77
2022-11-05T15:51:30.045Z,19.03
2022-11-05T15:54:29.007Z,20.53
2022-11-05T15:57:06.646Z,26.27
2022-11-05T15:59:50.485Z,25.63
2022-11-05T16:02:35.836Z,17.60
2022-11-05T16:05:17.594Z,20.07
2022-11-05T16:07:57.965Z,18.93
2022-11-05T16:10:40.163Z,21.33
2022-11-05T16:13:37.008Z,18.90
2022-11-05T16:16:36.707Z,26.20
2022-11-05T16:19:41.456Z,24.57
2022-11-05T16:22:19.456Z,23.80
2022-11-05T16:24:56.383Z,24.00
2022-11-05T16:27:35.389Z,24.77
2022-11-05T16:30:22.507Z,20.87
2022-11-05T16:33:11.358Z,25.77
2022-11-05T16:35:53.346Z,27.27
2022-11-05T16:38:31.087Z,29.33
2022-11-05T16:41:07.965Z,24.83
2022-11-05T16:43:53.987Z,24.17
2022-11-05T16:46:35.296Z,20.20
2022-11-05T16:49:16.537Z,22.67
2022-11-05T16:51:53.868Z,23.23
2022-11-05T16:54:31.117Z,29.37
2022-11-05T16:57:11.575Z,26.80
2022-11-05T16:59:49.237Z,27.03
2022-11-05T17:02:31.391Z,27.77
2022-11-05T17:05:21.295Z,28.40
2022-11-05T17:08:01.601Z,26.67
2022-11-05T17:10:41.985Z,26.17
2022-11-05T17:13:20.855Z,27.90
2022-11-05T17:15:58.458Z,25.43
2022-11-05T17:18:36.129Z,23.63
2022-11-05T17:21:16.713Z,28.40
2022-11-05T17:23:54.086Z,23.83
2022-11-05T17:26:31.716Z,21.47
2022-11-05T17:29:09.321Z,30.37
2022-11-05T17:31:47.562Z,25.87
2022-11-05T17:34:26.579Z,20.97
2022-11-05T17:37:08.419Z,23.07
2022-11-05T17:39:48.217Z,24.13
2022-11-05T17:42:26.254Z,27.03
2022-11-05T17:45:04.480Z,15.83
2022-11-05T17:47:45.375Z,19.53
2022-11-05T17:50:23.427Z,18.87
2022-11-05T17:53:05.360Z,24.13
2022-11-05T17:55:46.272Z,18.70
2022-11-05T17:58:24.135Z,19.53
2022-11-05T18:01:02.323Z,18.83
2022-11-05T18:03:41.537Z,23.07
2022-11-05T18:06:20.414Z,17.80
2022-11-05T18:09:01.703Z,16.33
2022-11-05T18:11:41.527Z,20.90
2022-11-05T18:14:23.866Z,22.37
2022-11-05T18:17:03.143Z,17.00
2022-11-05T18:19:42.296Z,21.87
2022-11-05T18:22:23.779Z,31.73
2022-11-05T18:25:06.103Z,17.33
2022-11-05T18:27:44.858Z,21.40
2022-11-05T18:30:23.838Z,22.03
2022-11-05T18:33:01.402Z,23.57
2022-11-05T18:35:45.190Z,22.37
2022-11-05T18:38:24.844Z,21.83
2022-11-05T18:41:10.425Z,21.03
2022-11-05T18:43:48.229Z,20.80
2022-11-05T18:46:55.764Z,22.40
2022-11-05T18:49:25.341Z,17.37
2022-11-05T18:52:03.387Z,20.37
2022-11-05T18:54:40.496Z,22.67
2022-11-05T18:57:21.294Z,17.73
2022-11-05T18:59:58.851Z,19.50
2022-11-05T19:02:36.734Z,17.17
2022-11-05T19:05:30.561Z,17.43
2022-11-05T19:08:08.686Z,26.47
2022-11-05T19:10:50.297Z,14.57
2022-11-05T19:13:31.867Z,19.67
2022-11-05T19:16:11.746Z,15.63
2022-11-05T19:18:49.915Z,19.57
2022-11-05T19:21:29.567Z,13.27
2022-11-05T19:24:07.995Z,14.80
2022-11-05T19:26:45.337Z,14.83
2022-11-05T19:29:25.887Z,13.97
2022-11-05T19:32:03.377Z,16.93
2022-11-05T19:34:41.460Z,14.43
2022-11-05T19:37:19.792Z,17.60
2022-11-05T19:39:57.761Z,20.40
2022-11-05T19:42:35.309Z,19.17
2022-11-05T19:45:43.480Z,19.63
2022-11-05T19:48:21.394Z,14.33
2022-11-05T19:50:59.556Z,18.97
2022-11-05T19:53:43.990Z,22.53
2022-11-05T19:56:27.297Z,24.23
2022-11-05T19:59:08.068Z,20.63
2022-11-05T20:01:49.284Z,21.63
2022-11-05T20:04:27.006Z,17.07
2022-11-05T20:07:05.901Z,18.70
2022-11-05T20:09:47.787Z,18.13
2022-11-05T20:12:26.963Z,23.03
2022-11-05T20:15:04.854Z,20.73
2022-11-05T20:17:45.492Z,18.47
2022-11-05T20:20:23.135Z,20.90
2022-11-05T20:23:03.888Z,19.20
2022-11-05T20:25:49.009Z,16.50
2022-11-05T20:28:29.108Z,13.17
2022-11-05T20:31:12.179Z,15.37
2022-11-05T20:33:54.057Z,23.83
2022-11-05T20:39:10.697Z,14.53
2022-11-05T20:41:47.885Z,18.67
2022-11-05T20:44:32.360Z,17.03
2022-11-05T20:47:15.966Z,16.63
2022-11-05T20:50:01.627Z,15.83
2022-11-05T20:55:16.563Z,14.93
2022-11-05T20:57:54.424Z,18.30
2022-11-05T21:00:34.011Z,15.63
2022-11-05T21:03:18.067Z,14.87
2022-11-05T21:06:09.203Z,11.80
2022-11-05T21:08:56.167Z,15.80
